Time;durP1;ratioP1;P1;durP2;ratioP2;P2;SDS_P1;SDS_P2;PMS_P1;PMS_P2;Temp;Humidity;BMP_temperature;BMP_pressure;BME280_temperature;BME280_humidity;BME280_pressure;Samples;Min_cycle;Max_cycle;Signal;HPM_P1;HPM_P2
2021/07/10 00:01:42;;;;;;;66.53;51.17;;;;;;;;;;5028014;28;20470;-54
2021/07/10 00:04:10;;;;;;;50.33;37.77;;;;;;;;;;5027158;28;20463;-57
2021/07/10 00:06:42;;;;;;;133.43;104.70;;;;;;;;;;5037017;28;20496;-57
2021/07/10 00:09:11;;;;;;;61.33;46.00;;;;;;;;;;5027580;28;20451;-55
2021/07/10 00:11:40;;;;;;;39.70;22.67;;;;;;;;;;5034615;28;20492;-54
2021/07/10 00:14:07;;;;;;;19.73;15.93;;;;;;;;;;5038791;28;20459;-57
2021/07/10 00:16:34;;;;;;;104.47;89.23;;;;;;;;;;5034678;28;20494;-55
2021/07/10 00:19:02;;;;;;;65.53;58.40;;;;;;;;;;5048008;28;20504;-55
2021/07/10 00:21:29;;;;;;;36.13;30.80;;;;;;;;;;5038835;28;20462;-56
2021/07/10 00:23:58;;;;;;;14.93;13.33;;;;;;;;;;5048387;28;20458;-56
2021/07/10 00:26:28;;;;;;;15.80;14.07;;;;;;;;;;5050313;28;20462;-55
2021/07/10 00:28:57;;;;;;;14.90;13.30;;;;;;;;;;5050757;28;20469;-55
2021/07/10 00:31:24;;;;;;;16.90;15.10;;;;;;;;;;5050522;28;20514;-54
2021/07/10 00:33:53;;;;;;;16.37;14.63;;;;;;;;;;5050954;28;20462;-52
2021/07/10 00:36:20;;;;;;;15.73;13.50;;;;;;;;;;5047253;28;20465;-52
2021/07/10 00:39:04;;;;;;;14.80;13.23;;;;;;;;;;5047055;28;20533;-56
2021/07/10 00:41:33;;;;;;;17.33;14.17;;;;;;;;;;5051663;28;20454;-55
2021/07/10 00:44:01;;;;;;;15.73;14.13;;;;;;;;;;5050594;28;20487;-55
2021/07/10 00:46:29;;;;;;;16.73;14.97;;;;;;;;;;5049834;28;20462;-56
2021/07/10 00:48:59;;;;;;;27.10;15.33;;;;;;;;;;5049697;28;20557;-52
2021/07/10 00:51:26;;;;;;;18.50;14.43;;;;;;;;;;5045113;28;20474;-53
2021/07/10 00:53:54;;;;;;;22.13;14.97;;;;;;;;;;5030942;28;20423;-51
2021/07/10 00:56:24;;;;;;;17.30;15.20;;;;;;;;;;5029758;28;20471;-55
2021/07/10 00:58:52;;;;;;;18.30;15.33;;;;;;;;;;5046556;28;20523;-54
2021/07/10 01:01:21;;;;;;;18.67;16.73;;;;;;;;;;5048420;28;20462;-54
2021/07/10 01:03:48;;;;;;;36.23;16.13;;;;;;;;;;5049992;28;20462;-54
2021/07/10 01:06:16;;;;;;;19.30;16.00;;;;;;;;;;5050165;28;20454;-52
2021/07/10 01:08:45;;;;;;;17.40;14.93;;;;;;;;;;5048869;28;20740;-53
2021/07/10 01:11:13;;;;;;;17.60;15.37;;;;;;;;;;5049091;28;20466;-57
2021/07/10 01:13:40;;;;;;;21.20;16.10;;;;;;;;;;5050152;28;20466;-51
2021/07/10 01:16:08;;;;;;;17.63;15.63;;;;;;;;;;5049805;28;20490;-56
2021/07/10 01:18:37;;;;;;;20.00;15.07;;;;;;;;;;5046406;28;20474;-52
2021/07/10 01:21:08;;;;;;;19.63;16.73;;;;;;;;;;5049620;28;20450;-54
2021/07/10 01:23:36;;;;;;;17.17;13.70;;;;;;;;;;5036257;28;20463;-54
2021/07/10 01:26:03;;;;;;;17.80;14.77;;;;;;;;;;5030050;28;20463;-53
2021/07/10 01:28:31;;;;;;;19.90;16.53;;;;;;;;;;5031037;28;20556;-54
2021/07/10 01:30:59;;;;;;;19.40;17.30;;;;;;;;;;5030627;28;20474;-55
2021/07/10 01:33:26;;;;;;;16.13;14.53;;;;;;;;;;5030918;28;20507;-54
2021/07/10 01:35:55;;;;;;;18.53;15.83;;;;;;;;;;5030971;28;20432;-56
2021/07/10 01:38:24;;;;;;;17.03;14.43;;;;;;;;;;5030443;28;20480;-52
2021/07/10 01:40:51;;;;;;;19.50;14.40;;;;;;;;;;5048026;28;20467;-54
2021/07/10 01:43:19;;;;;;;16.67;14.63;;;;;;;;;;5050093;28;20473;-59
2021/07/10 01:45:46;;;;;;;17.93;15.40;;;;;;;;;;5050523;28;20794;-56
2021/07/10 01:48:14;;;;;;;16.70;14.90;;;;;;;;;;5050211;28;20465;-57
2021/07/10 01:50:51;;;;;;;21.10;14.33;;;;;;;;;;5050322;28;20461;-56
2021/07/10 01:53:18;;;;;;;18.23;15.03;;;;;;;;;;5048927;28;20468;-52
2021/07/10 01:55:47;;;;;;;20.57;14.87;;;;;;;;;;5049685;28;20472;-56
2021/07/10 01:58:20;;;;;;;21.27;17.03;;;;;;;;;;5049400;28;20470;-55
2021/07/10 02:00:48;;;;;;;16.30;14.40;;;;;;;;;;5047266;28;20592;-51
2021/07/10 02:03:15;;;;;;;16.77;15.00;;;;;;;;;;5048986;28;20488;-50
2021/07/10 02:05:44;;;;;;;17.30;15.50;;;;;;;;;;5049337;28;20498;-53
2021/07/10 02:08:15;;;;;;;21.33;16.33;;;;;;;;;;5049412;28;20458;-56
2021/07/10 02:10:43;;;;;;;17.63;15.77;;;;;;;;;;5049803;28;20454;-57
2021/07/10 02:13:27;;;;;;;20.47;17.83;;;;;;;;;;5049202;28;20488;-55
2021/07/10 02:15:54;;;;;;;16.93;14.30;;;;;;;;;;5049596;28;20485;-57
2021/07/10 02:18:21;;;;;;;18.57;15.30;;;;;;;;;;5048526;28;20462;-54
2021/07/10 02:20:56;;;;;;;16.63;14.20;;;;;;;;;;5035745;28;20442;-53
2021/07/10 02:23:24;;;;;;;16.20;14.50;;;;;;;;;;5029697;28;20462;-56
2021/07/10 02:25:51;;;;;;;17.40;15.63;;;;;;;;;;5029909;28;20443;-55
2021/07/10 02:28:20;;;;;;;17.20;14.67;;;;;;;;;;5029600;28;20487;-52
2021/07/10 02:30:49;;;;;;;15.93;14.33;;;;;;;;;;5028806;28;20479;-57
2021/07/10 02:33:16;;;;;;;19.60;16.47;;;;;;;;;;5029147;28;20492;-56
2021/07/10 02:35:44;;;;;;;17.00;14.60;;;;;;;;;;5029439;28;20466;-57
2021/07/10 02:38:12;;;;;;;17.00;15.20;;;;;;;;;;5028193;28;20481;-52
2021/07/10 02:40:39;;;;;;;20.93;15.13;;;;;;;;;;5029432;28;20475;-53
2021/07/10 02:43:15;;;;;;;27.03;14.40;;;;;;;;;;5029147;28;20459;-51
2021/07/10 02:45:43;;;;;;;16.50;14.80;;;;;;;;;;5032664;28;20471;-56
2021/07/10 02:48:12;;;;;;;16.17;14.57;;;;;;;;;;5074627;27;20445;-55
2021/07/10 02:50:49;;;;;;;19.20;15.80;;;;;;;;;;5051056;27;20527;-53
2021/07/10 02:53:16;;;;;;;20.63;15.87;;;;;;;;;;5049707;28;20490;-54
2021/07/10 02:55:44;;;;;;;16.70;15.00;;;;;;;;;;5049418;28;20457;-55
2021/07/10 02:58:11;;;;;;;15.50;13.90;;;;;;;;;;5049874;28;20473;-55
2021/07/10 03:00:39;;;;;;;18.20;15.30;;;;;;;;;;5049873;28;20498;-56
2021/07/10 03:03:08;;;;;;;16.10;14.13;;;;;;;;;;5049905;28;20521;-54
2021/07/10 03:05:38;;;;;;;19.93;15.50;;;;;;;;;;5049303;28;20492;-54
2021/07/10 03:08:06;;;;;;;17.93;16.03;;;;;;;;;;5049558;28;20465;-55
2021/07/10 03:10:34;;;;;;;17.53;15.67;;;;;;;;;;5049555;28;20458;-56
2021/07/10 03:13:12;;;;;;;18.67;15.93;;;;;;;;;;5049174;28;20461;-55
2021/07/10 03:15:40;;;;;;;29.23;16.07;;;;;;;;;;5048888;28;20458;-52
2021/07/10 03:18:07;;;;;;;18.17;15.80;;;;;;;;;;5049382;28;20462;-57
2021/07/10 03:20:34;;;;;;;18.70;16.17;;;;;;;;;;5049183;28;20511;-55
2021/07/10 03:23:03;;;;;;;18.70;15.33;;;;;;;;;;5046457;28;20479;-54
2021/07/10 03:25:37;;;;;;;18.10;14.57;;;;;;;;;;5048493;28;20462;-56
2021/07/10 03:28:04;;;;;;;18.50;16.03;;;;;;;;;;5048784;28;20462;-53
2021/07/10 03:30:32;;;;;;;19.57;16.17;;;;;;;;;;5049474;28;20448;-54
2021/07/10 03:32:59;;;;;;;16.17;14.20;;;;;;;;;;5048369;28;20462;-54
2021/07/10 03:35:27;;;;;;;21.93;15.33;;;;;;;;;;5041923;28;20484;-55
2021/07/10 03:38:06;;;;;;;17.80;16.00;;;;;;;;;;5048607;28;20438;-53
2021/07/10 03:40:34;;;;;;;16.50;14.70;;;;;;;;;;5047985;28;20497;-55
2021/07/10 03:43:01;;;;;;;18.00;16.10;;;;;;;;;;5048151;28;20502;-54
2021/07/10 03:45:29;;;;;;;19.40;14.90;;;;;;;;;;5049015;28;20526;-56
2021/07/10 03:47:56;;;;;;;16.30;14.67;;;;;;;;;;5049762;28;20538;-56
2021/07/10 03:50:29;;;;;;;15.57;14.00;;;;;;;;;;5051545;28;20559;-54
2021/07/10 03:52:56;;;;;;;19.00;14.60;;;;;;;;;;5052249;28;20479;-53
2021/07/10 03:55:25;;;;;;;19.40;17.07;;;;;;;;;;5051541;28;20530;-55
2021/07/10 03:57:53;;;;;;;20.90;14.80;;;;;;;;;;5052444;28;20458;-55
2021/07/10 04:00:26;;;;;;;16.53;14.67;;;;;;;;;;5045144;28;20754;-57
2021/07/10 04:02:53;;;;;;;16.30;13.97;;;;;;;;;;5032823;28;20457;-56
2021/07/10 04:05:37;;;;;;;14.80;13.07;;;;;;;;;;5042100;28;20458;-53
2021/07/10 04:08:05;;;;;;;19.07;14.07;;;;;;;;;;5051428;28;20482;-55
2021/07/10 04:10:34;;;;;;;16.03;13.50;;;;;;;;;;5034621;28;20522;-55
2021/07/10 04:13:11;;;;;;;19.40;15.80;;;;;;;;;;5032218;28;20458;-53
2021/07/10 04:15:39;;;;;;;17.20;15.40;;;;;;;;;;5043817;28;20462;-56
2021/07/10 04:18:06;;;;;;;17.33;14.10;;;;;;;;;;5052231;28;20457;-55
2021/07/10 04:20:40;;;;;;;15.77;14.10;;;;;;;;;;5052227;28;20527;-54
2021/07/10 04:23:08;;;;;;;15.27;13.37;;;;;;;;;;5052169;28;20450;-57
2021/07/10 04:25:37;;;;;;;14.43;12.83;;;;;;;;;;5067874;27;20457;-54
2021/07/10 04:28:10;;;;;;;17.10;13.10;;;;;;;;;;5107935;27;20461;-57
2021/07/10 04:30:38;;;;;;;13.97;12.50;;;;;;;;;;5157114;27;20454;-56
2021/07/10 04:33:08;;;;;;;14.47;12.90;;;;;;;;;;5157583;27;20828;-54
2021/07/10 04:35:42;;;;;;;17.40;12.47;;;;;;;;;;5155386;27;20453;-56
2021/07/10 04:38:09;;;;;;;14.70;11.43;;;;;;;;;;5032756;28;20459;-51
2021/07/10 04:40:38;;;;;;;15.33;11.07;;;;;;;;;;5032382;28;20495;-58
2021/07/10 04:43:11;;;;;;;15.20;11.70;;;;;;;;;;5032715;28;20473;-57
2021/07/10 04:45:42;;;;;;;12.43;11.13;;;;;;;;;;5033026;28;20527;-52
2021/07/10 04:48:09;;;;;;;13.60;11.47;;;;;;;;;;5032944;28;20455;-56
2021/07/10 04:50:37;;;;;;;13.60;11.43;;;;;;;;;;5035067;28;20451;-53
2021/07/10 04:53:04;;;;;;;13.33;11.97;;;;;;;;;;5052450;28;20454;-56
2021/07/10 04:55:32;;;;;;;13.10;11.73;;;;;;;;;;5052321;28;20434;-56
2021/07/10 04:58:01;;;;;;;13.57;12.00;;;;;;;;;;5049457;28;20454;-58
2021/07/10 05:00:29;;;;;;;14.13;12.67;;;;;;;;;;5051249;28;20490;-51
2021/07/10 05:03:02;;;;;;;12.50;11.20;;;;;;;;;;5053737;28;20464;-55
2021/07/10 05:05:30;;;;;;;13.40;11.60;;;;;;;;;;5052327;28;20466;-56
2021/07/10 05:07:59;;;;;;;13.30;11.90;;;;;;;;;;5051614;28;20446;-56
2021/07/10 05:10:55;;;;;;;13.60;11.97;;;;;;;;;;5051518;28;20517;-53
2021/07/10 05:13:23;;;;;;;13.13;11.27;;;;;;;;;;5052303;28;20496;-55
2021/07/10 05:15:50;;;;;;;12.20;10.90;;;;;;;;;;5051442;28;20942;-57
2021/07/10 05:18:19;;;;;;;12.70;11.20;;;;;;;;;;5051178;28;20450;-54
2021/07/10 05:20:47;;;;;;;13.40;11.73;;;;;;;;;;5051994;28;20498;-57
2021/07/10 05:23:19;;;;;;;11.10;9.93;;;;;;;;;;5052358;28;20526;-57
2021/07/10 05:25:46;;;;;;;10.33;9.23;;;;;;;;;;5063468;27;20472;-59
2021/07/10 05:28:14;;;;;;;11.73;9.63;;;;;;;;;;5156296;27;20479;-57
2021/07/10 05:30:50;;;;;;;9.27;8.27;;;;;;;;;;5155639;27;20479;-58
2021/07/10 05:33:19;;;;;;;10.07;9.00;;;;;;;;;;5110729;27;20466;-57
2021/07/10 05:35:46;;;;;;;11.13;9.40;;;;;;;;;;5050997;28;20486;-56
2021/07/10 05:38:14;;;;;;;12.60;10.50;;;;;;;;;;5050092;28;20438;-58
2021/07/10 05:40:48;;;;;;;11.67;10.47;;;;;;;;;;5031078;28;20481;-54
2021/07/10 05:43:16;;;;;;;14.80;9.77;;;;;;;;;;5031101;28;20450;-51
2021/07/10 05:45:52;;;;;;;10.90;9.60;;;;;;;;;;5031439;28;20512;-54
2021/07/10 05:48:19;;;;;;;12.70;9.47;;;;;;;;;;5030347;28;20500;-53
2021/07/10 05:50:47;;;;;;;12.03;10.83;;;;;;;;;;5046808;28;20469;-55
2021/07/10 05:53:19;;;;;;;12.53;10.67;;;;;;;;;;5048478;28;20514;-53
2021/07/10 05:55:47;;;;;;;15.60;10.10;;;;;;;;;;5030031;28;20685;-59
2021/07/10 05:58:19;;;;;;;14.83;9.77;;;;;;;;;;5030854;28;20471;-58
2021/07/10 06:01:01;;;;;;;10.57;9.57;;;;;;;;;;5031930;28;20495;-56
2021/07/10 06:03:28;;;;;;;11.40;10.30;;;;;;;;;;5030579;28;20475;-52
2021/07/10 06:05:56;;;;;;;10.57;9.13;;;;;;;;;;5030541;28;20482;-58
2021/07/10 06:08:23;;;;;;;11.43;8.93;;;;;;;;;;5030510;28;20458;-56
2021/07/10 06:10:52;;;;;;;12.83;8.20;;;;;;;;;;5039166;28;20450;-55
2021/07/10 06:13:19;;;;;;;10.83;9.70;;;;;;;;;;5152293;27;20457;-56
2021/07/10 06:15:46;;;;;;;12.37;8.40;;;;;;;;;;5153805;27;20683;-54
2021/07/10 06:18:15;;;;;;;9.30;8.17;;;;;;;;;;5079445;27;20871;-57
2021/07/10 06:20:59;;;;;;;9.00;8.10;;;;;;;;;;5121144;27;20556;-56
2021/07/10 06:23:26;;;;;;;10.53;7.37;;;;;;;;;;5050613;28;20466;-56
2021/07/10 06:25:54;;;;;;;10.90;9.57;;;;;;;;;;5049315;28;20479;-56
2021/07/10 06:28:27;;;;;;;10.00;9.00;;;;;;;;;;5050117;28;20466;-56
2021/07/10 06:30:56;;;;;;;10.07;8.40;;;;;;;;;;5039690;28;20454;-58
2021/07/10 06:33:26;;;;;;;10.47;9.27;;;;;;;;;;5048582;28;20533;-57
2021/07/10 06:35:54;;;;;;;11.33;8.83;;;;;;;;;;5039207;28;20467;-59
2021/07/10 06:38:21;;;;;;;8.07;7.23;;;;;;;;;;5030758;28;21060;-59
2021/07/10 06:40:58;;;;;;;11.27;8.50;;;;;;;;;;5030175;28;20475;-58
2021/07/10 06:43:25;;;;;;;9.30;8.40;;;;;;;;;;5041535;28;20464;-57
2021/07/10 06:45:52;;;;;;;9.03;8.13;;;;;;;;;;5049824;28;20472;-56
2021/07/10 06:48:50;;;;;;;10.07;8.50;;;;;;;;;;5066471;27;20465;-53
2021/07/10 06:51:19;;;;;;;9.80;7.40;;;;;;;;;;5052450;27;20494;-57
2021/07/10 06:53:46;;;;;;;9.43;8.53;;;;;;;;;;5049201;28;20517;-58
2021/07/10 06:56:15;;;;;;;8.43;7.57;;;;;;;;;;5049630;28;20470;-56
2021/07/10 06:58:42;;;;;;;11.77;8.30;;;;;;;;;;5070147;27;20462;-55
2021/07/10 07:01:09;;;;;;;14.67;8.60;;;;;;;;;;5049653;28;20493;-55
2021/07/10 07:06:43;;;;;;;9.90;7.80;;;;;;;;;;5049743;28;20436;-56
2021/07/10 07:09:11;;;;;;;10.10;9.07;;;;;;;;;;5049576;28;20616;-54
2021/07/10 07:11:40;;;;;;;10.60;8.40;;;;;;;;;;5049913;28;20454;-57
2021/07/10 07:14:07;;;;;;;12.73;8.67;;;;;;;;;;5049300;28;20487;-55
2021/07/10 07:16:35;;;;;;;9.23;8.33;;;;;;;;;;5049699;28;20461;-53
2021/07/10 07:19:05;;;;;;;10.13;9.07;;;;;;;;;;5049934;28;20462;-58
2021/07/10 07:21:33;;;;;;;8.63;7.73;;;;;;;;;;5051177;28;20493;-56
2021/07/10 07:24:04;;;;;;;12.40;8.80;;;;;;;;;;5037194;28;20535;-57
2021/07/10 07:26:46;;;;;;;10.03;9.03;;;;;;;;;;5042141;28;20458;-59
2021/07/10 07:29:31;;;;;;;11.30;8.93;;;;;;;;;;5091117;28;20499;-58
2021/07/10 07:32:00;;;;;;;14.33;9.43;;;;;;;;;;5154787;27;20449;-57
2021/07/10 07:34:27;;;;;;;10.07;8.43;;;;;;;;;;5153348;27;20478;-57
2021/07/10 07:36:55;;;;;;;9.27;8.33;;;;;;;;;;5154866;27;20450;-56
2021/07/10 07:39:29;;;;;;;10.57;7.87;;;;;;;;;;5153807;27;20844;-57
2021/07/10 07:41:58;;;;;;;12.53;8.27;;;;;;;;;;5122249;27;20758;-58
2021/07/10 07:44:26;;;;;;;9.03;7.30;;;;;;;;;;5030176;28;20424;-53
2021/07/10 07:47:07;;;;;;;8.50;7.70;;;;;;;;;;5030884;28;20454;-58
2021/07/10 07:49:40;;;;;;;8.87;7.97;;;;;;;;;;5054622;28;20532;-59
2021/07/10 07:52:15;;;;;;;14.43;8.07;;;;;;;;;;5049392;28;20463;-57
2021/07/10 07:55:02;;;;;;;11.50;8.00;;;;;;;;;;5047447;28;20456;-57
2021/07/10 07:57:29;;;;;;;10.53;8.40;;;;;;;;;;5042894;28;20459;-56
2021/07/10 08:00:07;;;;;;;13.70;9.33;;;;;;;;;;5099478;28;20442;-58
2021/07/10 08:02:54;;;;;;;14.20;10.10;;;;;;;;;;5125036;27;20451;-59
2021/07/10 08:05:26;;;;;;;8.47;7.23;;;;;;;;;;5049061;28;20504;-57
2021/07/10 08:07:55;;;;;;;8.17;7.37;;;;;;;;;;5048989;28;20448;-57
2021/07/10 08:10:24;;;;;;;7.63;6.80;;;;;;;;;;5029599;28;20477;-58
2021/07/10 08:12:53;;;;;;;8.63;7.80;;;;;;;;;;5029413;28;20518;-56
2021/07/10 08:15:27;;;;;;;12.33;8.03;;;;;;;;;;5028569;28;20457;-54
2021/07/10 08:17:55;;;;;;;9.30;7.47;;;;;;;;;;5028744;28;20441;-57
2021/07/10 08:20:25;;;;;;;9.93;7.97;;;;;;;;;;5034774;28;20450;-60
2021/07/10 08:22:56;;;;;;;14.23;9.00;;;;;;;;;;5048614;28;20445;-57
2021/07/10 08:25:25;;;;;;;17.30;9.07;;;;;;;;;;5043567;28;20468;-54
2021/07/10 08:27:53;;;;;;;11.90;8.90;;;;;;;;;;5028124;28;20463;-55
2021/07/10 08:30:24;;;;;;;10.27;8.47;;;;;;;;;;5040413;28;20454;-56
2021/07/10 08:32:57;;;;;;;11.40;9.60;;;;;;;;;;5048785;28;20515;-59
2021/07/10 08:35:37;;;;;;;8.73;7.67;;;;;;;;;;5049528;28;20507;-56
2021/07/10 08:38:05;;;;;;;9.37;8.40;;;;;;;;;;5051878;28;20460;-58
2021/07/10 08:40:54;;;;;;;8.60;7.50;;;;;;;;;;5051733;28;20487;-55
2021/07/10 08:43:26;;;;;;;9.57;8.57;;;;;;;;;;5051349;28;20535;-57
2021/07/10 08:46:00;;;;;;;8.63;7.53;;;;;;;;;;5050816;28;20464;-57
2021/07/10 08:48:27;;;;;;;11.07;8.30;;;;;;;;;;5051075;28;20466;-57
2021/07/10 08:50:55;;;;;;;11.77;8.97;;;;;;;;;;5051247;28;20468;-57
2021/07/10 08:53:23;;;;;;;11.30;8.63;;;;;;;;;;5051050;28;20458;-56
2021/07/10 08:55:57;;;;;;;9.70;7.83;;;;;;;;;;5034265;28;20487;-59
2021/07/10 08:58:27;;;;;;;8.30;6.90;;;;;;;;;;5045968;28;20445;-56
2021/07/10 09:01:06;;;;;;;13.73;9.40;;;;;;;;;;5050734;28;20481;-59
2021/07/10 09:03:42;;;;;;;16.80;10.77;;;;;;;;;;5050529;28;20442;-58
2021/07/10 09:06:10;;;;;;;9.03;8.13;;;;;;;;;;5049756;28;20462;-57
2021/07/10 09:08:43;;;;;;;9.93;7.40;;;;;;;;;;5050295;28;20454;-62
2021/07/10 09:11:11;;;;;;;9.30;8.13;;;;;;;;;;5049616;28;20875;-53
2021/07/10 09:13:42;;;;;;;10.40;8.50;;;;;;;;;;5049914;28;20458;-61
2021/07/10 09:16:12;;;;;;;8.73;7.60;;;;;;;;;;5049663;28;20461;-59
2021/07/10 09:18:53;;;;;;;11.57;8.83;;;;;;;;;;5077977;27;20525;-59
2021/07/10 09:21:45;;;;;;;10.10;8.73;;;;;;;;;;5045078;28;20516;-58
2021/07/10 09:24:21;;;;;;;9.53;7.63;;;;;;;;;;5114677;27;20450;-58
2021/07/10 09:26:52;;;;;;;10.10;7.53;;;;;;;;;;5153666;27;20452;-59
2021/07/10 09:29:23;;;;;;;8.40;7.30;;;;;;;;;;5073141;27;20472;-58
2021/07/10 09:32:07;;;;;;;9.63;7.50;;;;;;;;;;5123791;27;20460;-59
2021/07/10 09:41:25;;;;;;;11.13;6.37;;;;;;;;;;5046768;28;20494;-59
2021/07/10 09:44:04;;;;;;;12.50;8.30;;;;;;;;;;5083709;27;20477;-57
2021/07/10 09:46:39;;;;;;;8.63;7.20;;;;;;;;;;5046083;28;20530;-59
2021/07/10 09:52:49;;;;;;;9.90;7.77;;;;;;;;;;5049826;28;20425;-59
2021/07/10 09:55:34;;;;;;;10.13;8.30;;;;;;;;;;5042992;28;20466;-60
2021/07/10 09:58:01;;;;;;;9.80;7.43;;;;;;;;;;5047796;28;21022;-59
2021/07/10 10:00:29;;;;;;;11.30;7.27;;;;;;;;;;5047674;28;20442;-60
2021/07/10 10:02:58;;;;;;;12.20;9.73;;;;;;;;;;5039761;28;20501;-58
2021/07/10 10:05:34;;;;;;;8.17;7.20;;;;;;;;;;5027701;28;20523;-63
2021/07/10 10:08:04;;;;;;;9.30;7.83;;;;;;;;;;5026782;28;20458;-60
2021/07/10 10:10:32;;;;;;;9.03;7.83;;;;;;;;;;5027484;28;20478;-59
2021/07/10 10:13:13;;;;;;;8.03;6.90;;;;;;;;;;5026805;28;20459;-57
2021/07/10 10:15:41;;;;;;;11.20;8.23;;;;;;;;;;5042985;28;20495;-57
2021/07/10 10:18:15;;;;;;;8.97;6.53;;;;;;;;;;5032202;28;20455;-60
2021/07/10 10:20:46;;;;;;;15.27;6.90;;;;;;;;;;5026724;28;20452;-61
2021/07/10 10:23:18;;;;;;;7.77;6.53;;;;;;;;;;5028743;28;20488;-56
2021/07/10 10:25:48;;;;;;;8.20;6.37;;;;;;;;;;5028928;28;20463;-59
2021/07/10 10:28:20;;;;;;;8.50;7.50;;;;;;;;;;5048521;28;20458;-60
2021/07/10 10:30:49;;;;;;;7.50;5.57;;;;;;;;;;5044858;28;20458;-57
2021/07/10 10:33:21;;;;;;;6.17;5.57;;;;;;;;;;5027779;28;20440;-60
2021/07/10 10:35:55;;;;;;;10.60;7.83;;;;;;;;;;5027526;28;20427;-59
2021/07/10 10:38:24;;;;;;;7.13;6.43;;;;;;;;;;5076629;27;20446;-57
2021/07/10 10:40:54;;;;;;;11.57;8.07;;;;;;;;;;5151427;27;20490;-59
2021/07/10 10:43:27;;;;;;;8.03;6.93;;;;;;;;;;5150225;27;20707;-60
2021/07/10 10:45:54;;;;;;;6.83;5.40;;;;;;;;;;5064645;27;20494;-56
2021/07/10 10:48:39;;;;;;;8.33;7.00;;;;;;;;;;5026202;28;20420;-58
2021/07/10 10:51:27;;;;;;;8.03;6.23;;;;;;;;;;5088626;27;20422;-57
2021/07/10 10:53:56;;;;;;;7.40;6.60;;;;;;;;;;5030185;27;20524;-58
2021/07/10 10:56:46;;;;;;;7.37;6.60;;;;;;;;;;5026245;28;20466;-58
2021/07/10 10:59:32;;;;;;;6.83;5.37;;;;;;;;;;5024764;28;20469;-56
2021/07/10 11:02:27;;;;;;;7.33;5.07;;;;;;;;;;5025338;28;20491;-59
2021/07/10 11:05:01;;;;;;;6.77;4.87;;;;;;;;;;5059847;28;20466;-59
2021/07/10 11:07:39;;;;;;;5.53;4.87;;;;;;;;;;5030481;28;20481;-59
2021/07/10 11:10:11;;;;;;;8.20;4.97;;;;;;;;;;5045817;28;20467;-59
2021/07/10 11:12:55;;;;;;;10.83;6.20;;;;;;;;;;5045260;28;20458;-58
2021/07/10 11:15:41;;;;;;;7.00;5.70;;;;;;;;;;5044893;28;20450;-59
2021/07/10 11:18:09;;;;;;;8.90;6.00;;;;;;;;;;5044900;28;20476;-59
2021/07/10 11:20:59;;;;;;;6.40;5.10;;;;;;;;;;5026212;28;20455;-60
2021/07/10 11:23:30;;;;;;;6.17;3.97;;;;;;;;;;5031579;28;21012;-57
2021/07/10 11:26:11;;;;;;;5.77;4.07;;;;;;;;;;5045553;28;20499;-59
2021/07/10 11:29:05;;;;;;;14.43;5.20;;;;;;;;;;5043626;28;20506;-58
2021/07/10 11:31:34;;;;;;;6.30;4.50;;;;;;;;;;5067565;28;20545;-60
2021/07/10 11:34:07;;;;;;;6.17;4.13;;;;;;;;;;5091903;28;20712;-59
2021/07/10 11:36:43;;;;;;;5.20;4.70;;;;;;;;;;5038482;28;20473;-61
2021/07/10 11:39:32;;;;;;;5.70;4.27;;;;;;;;;;5042786;28;20491;-59
2021/07/10 11:42:02;;;;;;;6.77;4.83;;;;;;;;;;5017050;28;20502;-59
2021/07/10 11:44:44;;;;;;;4.67;3.50;;;;;;;;;;5038772;28;20489;-58
2021/07/10 11:47:11;;;;;;;6.13;4.97;;;;;;;;;;5026512;28;20457;-60
2021/07/10 11:49:43;;;;;;;6.10;4.70;;;;;;;;;;5025729;28;20458;-59
2021/07/10 11:52:16;;;;;;;7.00;5.30;;;;;;;;;;5028770;28;20500;-59
2021/07/10 11:54:46;;;;;;;5.77;4.70;;;;;;;;;;5080917;28;20466;-60
2021/07/10 11:57:15;;;;;;;9.50;4.87;;;;;;;;;;5043552;28;20576;-60
2021/07/10 11:59:47;;;;;;;7.13;4.50;;;;;;;;;;5043944;28;20464;-58
2021/07/10 12:02:18;;;;;;;5.33;4.57;;;;;;;;;;5045536;28;20486;-57
2021/07/10 12:05:01;;;;;;;7.30;4.20;;;;;;;;;;5041143;28;20471;-60
2021/07/10 12:07:29;;;;;;;5.33;3.93;;;;;;;;;;5036618;28;20513;-58
2021/07/10 12:10:12;;;;;;;12.20;5.70;;;;;;;;;;5035959;28;20463;-60
2021/07/10 12:12:54;;;;;;;6.17;4.43;;;;;;;;;;5035418;28;20458;-60
2021/07/10 12:15:24;;;;;;;5.97;4.30;;;;;;;;;;5038196;28;20488;-59
2021/07/10 12:17:53;;;;;;;5.10;4.20;;;;;;;;;;5044775;28;20453;-59
2021/07/10 12:20:25;;;;;;;6.43;4.17;;;;;;;;;;5046330;28;20466;-58
2021/07/10 12:23:06;;;;;;;4.20;3.20;;;;;;;;;;5048987;28;20529;-57
2021/07/10 12:25:38;;;;;;;7.93;3.73;;;;;;;;;;5053494;27;20458;-60
2021/07/10 12:31:03;;;;;;;6.70;4.47;;;;;;;;;;5047800;28;20457;-60
2021/07/10 12:33:55;;;;;;;5.67;3.93;;;;;;;;;;5048897;28;20562;-59
2021/07/10 12:39:22;;;;;;;7.10;4.30;;;;;;;;;;5045204;28;20498;-57
2021/07/10 12:41:50;;;;;;;4.43;3.90;;;;;;;;;;5047130;28;20489;-59
2021/07/10 12:44:39;;;;;;;6.33;5.20;;;;;;;;;;5047914;28;20462;-57
2021/07/10 12:47:09;;;;;;;7.70;6.90;;;;;;;;;;5043790;28;20650;-59
2021/07/10 12:49:38;;;;;;;17.33;12.13;;;;;;;;;;5042386;28;20463;-59
2021/07/10 12:52:31;;;;;;;5.77;4.43;;;;;;;;;;5045427;28;20462;-60
2021/07/10 12:55:07;;;;;;;6.37;4.90;;;;;;;;;;5032836;28;20491;-59
2021/07/10 12:57:48;;;;;;;5.40;4.40;;;;;;;;;;5058650;27;20496;-59
2021/07/10 13:00:17;;;;;;;5.57;4.90;;;;;;;;;;5089228;27;20454;-59
2021/07/10 13:02:47;;;;;;;7.20;5.50;;;;;;;;;;5031897;27;20853;-59
2021/07/10 13:05:35;;;;;;;5.40;4.10;;;;;;;;;;5129616;27;20475;-60
2021/07/10 13:08:09;;;;;;;6.70;5.20;;;;;;;;;;5069117;27;20511;-60
2021/07/10 13:10:38;;;;;;;5.80;4.13;;;;;;;;;;5076871;27;20453;-61
2021/07/10 13:13:12;;;;;;;7.83;5.67;;;;;;;;;;5112938;27;20453;-59
2021/07/10 13:15:44;;;;;;;5.70;3.90;;;;;;;;;;5118913;27;20505;-59
2021/07/10 13:18:15;;;;;;;7.53;6.73;;;;;;;;;;5046851;28;20465;-60
2021/07/10 13:20:50;;;;;;;7.17;3.73;;;;;;;;;;5060492;27;20461;-59
2021/07/10 13:23:29;;;;;;;5.00;3.57;;;;;;;;;;5032516;27;20503;-59
2021/07/10 13:25:57;;;;;;;4.70;4.00;;;;;;;;;;5084637;27;20483;-60
2021/07/10 13:28:47;;;;;;;5.00;4.20;;;;;;;;;;5046529;28;20498;-59
2021/07/10 13:31:21;;;;;;;4.40;3.13;;;;;;;;;;5046931;27;20461;-59
2021/07/10 13:34:04;;;;;;;8.53;4.17;;;;;;;;;;5151757;27;20449;-60
2021/07/10 13:36:38;;;;;;;6.53;4.03;;;;;;;;;;5154353;27;20505;-60
2021/07/10 13:39:07;;;;;;;7.13;4.70;;;;;;;;;;5153357;27;20454;-58
2021/07/10 13:41:36;;;;;;;4.60;3.87;;;;;;;;;;5128669;27;20465;-59
2021/07/10 13:44:12;;;;;;;5.20;4.27;;;;;;;;;;5046917;28;20494;-58
2021/07/10 13:46:41;;;;;;;6.30;4.77;;;;;;;;;;5046676;28;20538;-58
2021/07/10 13:49:22;;;;;;;5.70;4.27;;;;;;;;;;5046019;28;20462;-59
2021/07/10 13:51:54;;;;;;;4.90;3.90;;;;;;;;;;5047075;28;20496;-61
2021/07/10 13:54:28;;;;;;;8.17;4.67;;;;;;;;;;5047255;28;20462;-59
2021/07/10 13:57:12;;;;;;;5.83;4.80;;;;;;;;;;5046095;28;20546;-59
2021/07/10 13:59:41;;;;;;;10.43;4.80;;;;;;;;;;5044602;28;20477;-59
2021/07/10 14:02:09;;;;;;;5.53;3.83;;;;;;;;;;5045735;28;20957;-60
2021/07/10 14:04:37;;;;;;;6.13;3.97;;;;;;;;;;5046400;28;20888;-60
2021/07/10 14:07:07;;;;;;;5.10;3.60;;;;;;;;;;5047063;28;20434;-59
2021/07/10 14:09:36;;;;;;;3.97;3.20;;;;;;;;;;5045871;28;20462;-59
2021/07/10 14:12:15;;;;;;;8.03;3.93;;;;;;;;;;5047662;28;20492;-59
2021/07/10 14:14:45;;;;;;;6.80;3.97;;;;;;;;;;5046862;28;20525;-59
2021/07/10 14:17:13;;;;;;;7.17;6.47;;;;;;;;;;5046879;28;20515;-57
2021/07/10 14:19:40;;;;;;;5.20;4.60;;;;;;;;;;5045284;28;20484;-59
2021/07/10 14:22:11;;;;;;;11.40;9.43;;;;;;;;;;5044474;28;20442;-60
2021/07/10 14:24:39;;;;;;;9.70;6.77;;;;;;;;;;5045281;28;20462;-59
2021/07/10 14:27:07;;;;;;;7.43;5.00;;;;;;;;;;5045128;28;20476;-59
2021/07/10 14:29:41;;;;;;;11.10;4.93;;;;;;;;;;5045761;28;20473;-61
2021/07/10 14:32:13;;;;;;;5.47;3.87;;;;;;;;;;5033868;28;20459;-60
2021/07/10 14:34:43;;;;;;;6.40;3.70;;;;;;;;;;5035428;28;20457;-57
2021/07/10 14:37:27;;;;;;;6.43;5.17;;;;;;;;;;5048239;28;20454;-60
2021/07/10 14:39:56;;;;;;;6.03;4.00;;;;;;;;;;5030684;28;20446;-61
2021/07/10 14:42:31;;;;;;;5.47;4.30;;;;;;;;;;5040641;28;20456;-59
2021/07/10 14:44:58;;;;;;;6.60;3.73;;;;;;;;;;5046188;28;20453;-59
2021/07/10 14:47:25;;;;;;;5.00;4.00;;;;;;;;;;5027262;28;20517;-61
2021/07/10 14:49:54;;;;;;;4.70;4.13;;;;;;;;;;5027168;28;20459;-59
2021/07/10 14:52:22;;;;;;;6.87;4.60;;;;;;;;;;5040843;28;20458;-61
2021/07/10 14:54:50;;;;;;;5.07;4.30;;;;;;;;;;5045840;28;20446;-58
2021/07/10 14:57:18;;;;;;;7.53;3.67;;;;;;;;;;5055205;27;20507;-57
2021/07/10 14:59:46;;;;;;;5.77;3.97;;;;;;;;;;5044145;28;20481;-60
2021/07/10 15:02:15;;;;;;;6.67;4.67;;;;;;;;;;5052842;27;20492;-58
2021/07/10 15:04:42;;;;;;;6.33;4.27;;;;;;;;;;5025213;28;20473;-59
2021/07/10 15:07:09;;;;;;;9.80;6.50;;;;;;;;;;5026666;28;20454;-59
2021/07/10 15:09:40;;;;;;;4.80;3.90;;;;;;;;;;5034403;28;20446;-59
2021/07/10 15:12:09;;;;;;;5.70;4.40;;;;;;;;;;5043733;28;20507;-60
2021/07/10 15:14:40;;;;;;;7.67;5.10;;;;;;;;;;5034895;28;20487;-60
2021/07/10 15:17:30;;;;;;;8.40;4.93;;;;;;;;;;5043495;28;20484;-60